Bernadotte, Illinois
Current Conditions -  °F | °C
As of 3:55 PM on Saturday 25 Oct 2014 (Local Time) from KMQB Reporting Station
Clear Clear  
Wind Chill: 74°   Ceiling: Unl
Heat Index: 74°   Visibility: 10mi
Dew Point: 39°   Wind: 10mph
Humidity: 28%   Direction: 330°NNW
Pressure: 30.03"   Gusts: NA
Location:  40.364°N, 90.2765°W
Report Text: KMQB 252055Z AUTO 33009KT 10SM CLR 23/04 A3003 RMK AO2 T02340039
Loading
Personal Weather Stations






























Interactive Weather Map
Tropical Storm Tracking
New forecast layout! Learn more

10-Day Weather Forecast

Advertisements
Track Severe Weather on mobile